AGGM

Munda Airport

Solomon Islands
METAR AGGM 200500Z 00000KT 9999 +RESH SCT018 FEW018CB BKN100 26/25 Q1005
Observed Flight Rules
Jan-20 @ 05:00 UTC (2 hours ago) Visual Flight Rules
Wind Visibility Clouds
Calm 10,000+ meters
  • Scattered at 1,800' AGL
  • Few at 1,800' AGL
  • Broken at 10,000' AGL
Temperatures Readings
Current 26°C / 79°F
Dewpoint 25°C / 77°F
Humidity 94%
Altimeter 29.68" Hg
Pressure 1005 hPa
Elevation 6
METAR AGGM 200500Z 00000KT 9999 +RESH SCT018 FEW018CB BKN100 26/25 Q1005
Observed Flight Rules
Jan-20 @ 05:00 UTC
(2 hours ago)
VFR
Wind Visibility
Calm 10,000+ meters
Clouds
  • Scattered at 1,800' AGL
  • Few at 1,800' AGL
  • Broken at 10,000' AGL
Temperature Dewpoint
26°C / 79°F 25°C / 77°F
Humidity Altimeter Pressure
94% 29.68" Hg 1005 hPa